TimePDT,TemperatureF,Dew PointF,Humidity,Sea Level PressureIn,VisibilityMPH,Wind Direction,Wind SpeedMPH,Gust SpeedMPH,PrecipitationIn,Events,Conditions,WindDirDegrees,DateUTC
12:56 AM,64.9,33.1,31,29.77,10.0,SW,8.1,-,N/A,,Unknown,220,2013-09-19 07:56:00
1:56 AM,66.9,25.0,21,29.78,10.0,SW,6.9,-,N/A,,Unknown,230,2013-09-19 08:56:00
2:56 AM,68.0,23.0,18,29.78,10.0,NW,6.9,-,N/A,,Unknown,310,2013-09-19 09:56:00
3:56 AM,59.0,28.0,31,29.78,10.0,Calm,Calm,-,N/A,,Unknown,0,2013-09-19 10:56:00
4:56 AM,66.0,27.0,23,29.78,10.0,NW,8.1,-,N/A,,Unknown,310,2013-09-19 11:56:00
5:56 AM,68.0,27.0,21,29.79,10.0,NW,10.4,-,N/A,,Clear,310,2013-09-19 12:56:00
6:56 AM,57.9,27.0,31,29.82,9.0,WNW,4.6,-,N/A,,Clear,300,2013-09-19 13:56:00
7:56 AM,69.1,27.0,21,29.83,10.0,Calm,Calm,-,N/A,,Clear,0,2013-09-19 14:56:00
8:56 AM,77.0,26.1,15,29.85,10.0,Calm,Calm,-,N/A,,Clear,0,2013-09-19 15:56:00
9:56 AM,82.0,24.1,12,29.85,10.0,Calm,Calm,-,N/A,,Clear,0,2013-09-19 16:56:00
10:56 AM,86.0,23.0,10,29.84,10.0,SSE,4.6,-,N/A,,Clear,150,2013-09-19 17:56:00
11:56 AM,89.1,23.0,9,29.83,10.0,East,5.8,-,N/A,,Clear,80,2013-09-19 18:56:00
12:56 PM,90.0,23.0,9,29.81,10.0,Calm,Calm,-,N/A,,Clear,0,2013-09-19 19:56:00
1:56 PM,93.0,24.1,8,29.78,10.0,Variable,4.6,-,N/A,,Clear,0,2013-09-19 20:56:00
2:56 PM,93.0,23.0,8,29.76,10.0,SSE,6.9,-,N/A,,Clear,150,2013-09-19 21:56:00
3:56 PM,93.9,21.9,7,29.75,10.0,Variable,5.8,-,N/A,,Clear,0,2013-09-19 22:56:00
4:56 PM,93.0,23.0,8,29.74,10.0,SSE,4.6,16.1,N/A,,Clear,150,2013-09-19 23:56:00
5:56 PM,91.9,24.1,9,29.73,10.0,East,3.5,-,N/A,,Clear,100,2013-09-20 00:56:00
6:56 PM,87.1,23.0,10,29.75,10.0,East,5.8,-,N/A,,Clear,90,2013-09-20 01:56:00
7:56 PM,82.0,24.1,12,29.75,10.0,East,3.5,-,N/A,,Clear,100,2013-09-20 02:56:00
8:56 PM,73.9,19.9,13,29.77,10.0,West,5.8,-,N/A,,Clear,270,2013-09-20 03:56:00
9:56 PM,73.0,19.9,14,29.77,10.0,WSW,8.1,-,N/A,,Clear,250,2013-09-20 04:56:00
10:56 PM,68.0,19.9,16,29.78,10.0,WSW,5.8,-,N/A,,Unknown,240,2013-09-20 05:56:00
11:56 PM,66.0,19.9,17,29.77,10.0,South,6.9,-,N/A,,Unknown,190,2013-09-20 06:56:00